sensor_id;sensor_type;location;lat;lon;timestamp;temperature;humidity
1878;DHT22;939;51.426;6.972;2022-10-23T00:07:35;15.60;99.90
1878;DHT22;939;51.426;6.972;2022-10-23T00:10:12;15.50;99.90
1878;DHT22;939;51.426;6.972;2022-10-23T00:16:49;15.50;99.90
1878;DHT22;939;51.426;6.972;2022-10-23T00:19:37;15.50;99.90
1878;DHT22;939;51.426;6.972;2022-10-23T00:22:29;15.40;99.90
1878;DHT22;939;51.426;6.972;2022-10-23T00:28:41;15.20;99.90
1878;DHT22;939;51.426;6.972;2022-10-23T00:31:40;15.20;99.90
1878;DHT22;939;51.426;6.972;2022-10-23T00:34:23;15.30;99.90
1878;DHT22;939;51.426;6.972;2022-10-23T00:37:09;15.20;99.90
1878;DHT22;939;51.426;6.972;2022-10-23T00:39:42;15.30;99.90
1878;DHT22;939;51.426;6.972;2022-10-23T00:42:32;15.30;99.90
1878;DHT22;939;51.426;6.972;2022-10-23T00:45:24;15.30;99.90
1878;DHT22;939;51.426;6.972;2022-10-23T00:48:09;15.30;99.90
1878;DHT22;939;51.426;6.972;2022-10-23T00:50:46;15.30;99.90
1878;DHT22;939;51.426;6.972;2022-10-23T00:53:25;15.30;99.90
1878;DHT22;939;51.426;6.972;2022-10-23T00:55:55;15.40;99.90
1878;DHT22;939;51.426;6.972;2022-10-23T00:58:24;15.30;99.90
1878;DHT22;939;51.426;6.972;2022-10-23T01:00:56;15.20;99.90
1878;DHT22;939;51.426;6.972;2022-10-23T01:03:30;15.20;99.90
1878;DHT22;939;51.426;6.972;2022-10-23T01:06:03;15.20;99.90
1878;DHT22;939;51.426;6.972;2022-10-23T01:08:41;15.10;99.90
1878;DHT22;939;51.426;6.972;2022-10-23T01:11:21;15.10;99.90
1878;DHT22;939;51.426;6.972;2022-10-23T01:14:02;15.20;99.90
1878;DHT22;939;51.426;6.972;2022-10-23T01:16:40;15.10;99.90
1878;DHT22;939;51.426;6.972;2022-10-23T01:19:30;15.00;99.90
1878;DHT22;939;51.426;6.972;2022-10-23T01:22:32;15.00;99.90
1878;DHT22;939;51.426;6.972;2022-10-23T01:25:19;15.00;99.90
1878;DHT22;939;51.426;6.972;2022-10-23T01:28:13;15.10;99.90
1878;DHT22;939;51.426;6.972;2022-10-23T01:30:47;15.00;99.90
1878;DHT22;939;51.426;6.972;2022-10-23T01:33:30;15.00;99.90
1878;DHT22;939;51.426;6.972;2022-10-23T01:36:02;15.00;99.90
1878;DHT22;939;51.426;6.972;2022-10-23T01:38:43;15.00;99.90
1878;DHT22;939;51.426;6.972;2022-10-23T01:41:19;14.90;99.90
1878;DHT22;939;51.426;6.972;2022-10-23T01:43:52;14.90;99.90
1878;DHT22;939;51.426;6.972;2022-10-23T01:46:32;14.90;99.90
1878;DHT22;939;51.426;6.972;2022-10-23T01:49:03;14.90;99.90
1878;DHT22;939;51.426;6.972;2022-10-23T01:51:35;14.90;99.90
1878;DHT22;939;51.426;6.972;2022-10-23T01:54:08;14.80;99.90
1878;DHT22;939;51.426;6.972;2022-10-23T01:56:51;14.80;99.90
1878;DHT22;939;51.426;6.972;2022-10-23T01:59:28;14.90;99.90
1878;DHT22;939;51.426;6.972;2022-10-23T02:02:01;14.80;99.90
1878;DHT22;939;51.426;6.972;2022-10-23T02:04:51;14.80;99.90
1878;DHT22;939;51.426;6.972;2022-10-23T02:07:22;14.80;99.90
1878;DHT22;939;51.426;6.972;2022-10-23T02:09:54;14.80;99.90
1878;DHT22;939;51.426;6.972;2022-10-23T02:12:43;14.80;99.90
1878;DHT22;939;51.426;6.972;2022-10-23T02:15:30;14.90;99.90
1878;DHT22;939;51.426;6.972;2022-10-23T02:18:14;14.90;99.90
1878;DHT22;939;51.426;6.972;2022-10-23T02:20:54;14.90;99.90
1878;DHT22;939;51.426;6.972;2022-10-23T02:23:29;14.90;99.90
1878;DHT22;939;51.426;6.972;2022-10-23T02:26:16;14.90;99.90
1878;DHT22;939;51.426;6.972;2022-10-23T02:28:50;14.80;99.90
1878;DHT22;939;51.426;6.972;2022-10-23T02:31:22;14.90;99.90
1878;DHT22;939;51.426;6.972;2022-10-23T02:33:54;14.90;99.90
1878;DHT22;939;51.426;6.972;2022-10-23T02:36:25;14.90;99.90
1878;DHT22;939;51.426;6.972;2022-10-23T02:38:53;14.90;99.90
1878;DHT22;939;51.426;6.972;2022-10-23T02:41:36;14.90;99.90
1878;DHT22;939;51.426;6.972;2022-10-23T02:44:22;14.90;99.90
1878;DHT22;939;51.426;6.972;2022-10-23T02:47:02;14.90;99.90
1878;DHT22;939;51.426;6.972;2022-10-23T02:49:39;14.90;99.90
1878;DHT22;939;51.426;6.972;2022-10-23T02:52:26;14.90;99.90
1878;DHT22;939;51.426;6.972;2022-10-23T02:55:25;14.90;99.90
1878;DHT22;939;51.426;6.972;2022-10-23T02:58:18;14.80;99.90
1878;DHT22;939;51.426;6.972;2022-10-23T03:00:54;14.80;99.90
1878;DHT22;939;51.426;6.972;2022-10-23T03:03:30;14.70;99.90
1878;DHT22;939;51.426;6.972;2022-10-23T03:06:02;14.70;99.90
1878;DHT22;939;51.426;6.972;2022-10-23T03:08:40;14.70;99.90
1878;DHT22;939;51.426;6.972;2022-10-23T03:11:12;14.80;99.90
1878;DHT22;939;51.426;6.972;2022-10-23T03:13:44;14.80;99.90
1878;DHT22;939;51.426;6.972;2022-10-23T03:16:18;14.80;99.90
1878;DHT22;939;51.426;6.972;2022-10-23T03:18:50;14.90;99.90
1878;DHT22;939;51.426;6.972;2022-10-23T03:21:19;14.90;99.90
1878;DHT22;939;51.426;6.972;2022-10-23T03:26:34;14.90;99.90
1878;DHT22;939;51.426;6.972;2022-10-23T03:29:03;14.90;99.90
1878;DHT22;939;51.426;6.972;2022-10-23T03:31:33;14.90;99.90
1878;DHT22;939;51.426;6.972;2022-10-23T03:34:23;14.90;99.90
1878;DHT22;939;51.426;6.972;2022-10-23T03:37:01;14.90;99.90
1878;DHT22;939;51.426;6.972;2022-10-23T03:39:50;14.90;99.90
1878;DHT22;939;51.426;6.972;2022-10-23T03:42:29;14.90;99.90
1878;DHT22;939;51.426;6.972;2022-10-23T03:44:59;14.90;99.90
1878;DHT22;939;51.426;6.972;2022-10-23T03:47:32;14.80;99.90
1878;DHT22;939;51.426;6.972;2022-10-23T03:50:11;14.80;99.90
1878;DHT22;939;51.426;6.972;2022-10-23T03:52:44;14.80;99.90
1878;DHT22;939;51.426;6.972;2022-10-23T03:55:14;14.80;99.90
1878;DHT22;939;51.426;6.972;2022-10-23T03:57:42;14.80;99.90
1878;DHT22;939;51.426;6.972;2022-10-23T04:00:15;14.80;99.90
1878;DHT22;939;51.426;6.972;2022-10-23T04:02:50;14.80;99.90
1878;DHT22;939;51.426;6.972;2022-10-23T04:05:41;14.80;99.90
1878;DHT22;939;51.426;6.972;2022-10-23T04:08:13;14.70;99.90
1878;DHT22;939;51.426;6.972;2022-10-23T04:10:43;14.60;99.90
1878;DHT22;939;51.426;6.972;2022-10-23T04:13:10;14.50;99.90
1878;DHT22;939;51.426;6.972;2022-10-23T04:15:37;14.30;99.90
1878;DHT22;939;51.426;6.972;2022-10-23T04:18:05;14.20;99.90
1878;DHT22;939;51.426;6.972;2022-10-23T04:20:37;14.20;99.90
1878;DHT22;939;51.426;6.972;2022-10-23T04:23:17;14.30;99.90
1878;DHT22;939;51.426;6.972;2022-10-23T04:26:00;14.30;99.90
1878;DHT22;939;51.426;6.972;2022-10-23T04:28:38;14.30;99.90
1878;DHT22;939;51.426;6.972;2022-10-23T04:31:10;14.40;99.90
1878;DHT22;939;51.426;6.972;2022-10-23T04:33:45;14.50;99.90
1878;DHT22;939;51.426;6.972;2022-10-23T04:36:13;14.50;99.90
1878;DHT22;939;51.426;6.972;2022-10-23T04:38:44;14.50;99.90
1878;DHT22;939;51.426;6.972;2022-10-23T04:41:14;14.50;99.90
1878;DHT22;939;51.426;6.972;2022-10-23T04:43:44;14.50;99.90
1878;DHT22;939;51.426;6.972;2022-10-23T04:46:13;14.50;99.90
1878;DHT22;939;51.426;6.972;2022-10-23T04:48:41;14.60;99.90
1878;DHT22;939;51.426;6.972;2022-10-23T04:51:19;14.60;99.90
1878;DHT22;939;51.426;6.972;2022-10-23T04:53:51;14.60;99.90
1878;DHT22;939;51.426;6.972;2022-10-23T04:56:38;14.50;99.90
1878;DHT22;939;51.426;6.972;2022-10-23T04:59:05;14.50;99.90
